• Join FlightAware (Why Join?)
  • Login
  • US Flag 
01:45AM EDT


 

Airport Tracker/Info


-or-


 

Live Flight TrackerFlight Track Log ✈ ASQ5810 ✈ 25-May-2013 ✈ KSBN - KORD

Flight Track Log - Related Links

Times and Time Zones

All times are in EDT time to prevent confusion due to time zone crossing. See the ASQ5810 flight status page for this flight to view local times or setup timezone preferences in your user account.

Time Position Orientation Groundspeed Altitude Reporting Facility
EDT Latitude Longitude Course Direction KTS MPH feet Rate Location/Type
12:53PM 41.8797 -86.5003 308° West  Level FlightAware Approximate
12:53PM 41.8728 -86.3975 312° West 262 302 9,600  Level Chicago Center
12:54PM 41.9182 -86.5656 308° West  Level FlightAware Approximate
12:54PM 41.9228 -86.4894 306° West 304 350 10,000  Level Chicago Center
12:55PM 41.9567 -86.6310 308° West  Level FlightAware Approximate
12:55PM 41.9758 -86.5936 304° West 336 387 10,000  Level Chicago Center
12:56PM 41.9977 -86.7010 308° West  Level FlightAware Approximate
12:56PM 42.0267 -86.6897 305° West 319 367 9,900  Level Chicago Center
12:57PM 42.0415 -86.7704 312° West  Level FlightAware Approximate
12:57PM 42.0761 -86.7878 304° West 276 318 8,800  Level Chicago Center
12:58PM 42.0867 -86.8382 312° West  Level FlightAware Approximate
12:58PM 42.1183 -86.8692 305° West 270 311 8,000  Level Chicago Center
12:59PM 42.1561 -86.9533 301° West 267 307 8,000  Level Chicago Center
01:00PM 42.1614 -87.0528 274° West 265 305 8,000  Level Chicago Center
01:01PM 42.1672 -87.1503 275° West 265 305 8,000  Level Chicago Center
01:02PM 42.1739 -87.2503 275° West 269 310 8,000 -540 Level Chicago Center
01:03PM 42.1675 -87.3697 266° West 271 312 6,900 -1,080 Descending Chicago Center
01:04PM 42.1586 -87.4656 263° West 262 302 5,900 -960 Descending Chicago Center
01:05PM 42.1422 -87.5619 257° West 266 306 5,000 -720 Descending Chicago Center
01:06PM 42.1253 -87.6578 257° West 264 304 4,500 -780 Descending Chicago Center
01:07PM 42.1006 -87.7394 248° West 249 287 3,500 -1,020 Descending Chicago Center